Time;durP1;ratioP1;P1;durP2;ratioP2;P2;SDS_P1;SDS_P2;PMS_P1;PMS_P2;Temp;Humidity;BMP_temperature;BMP_pressure;BME280_temperature;BME280_humidity;BME280_pressure;Samples;Min_cycle;Max_cycle;Signal;HPM_P1;HPM_P2
2022/01/27 00:02:46;;;;;;;26.48;15.75;;;;;;;6.58;63.16;102801.44;5102234;28;20047;-62
2022/01/27 00:05:18;;;;;;;30.67;16.35;;;;;;;6.57;62.99;102797.91;5103600;28;20055;-62
2022/01/27 00:07:58;;;;;;;27.75;16.67;;;;;;;6.56;63.15;102798.91;5103766;28;20047;-61
2022/01/27 00:10:42;;;;;;;28.63;16.38;;;;;;;6.57;62.74;102787.22;5095637;28;20041;-62
2022/01/27 00:13:13;;;;;;;29.70;15.93;;;;;;;6.56;62.74;102780.19;5102943;28;20048;-62
2022/01/27 00:15:41;;;;;;;27.40;16.25;;;;;;;6.55;63.09;102769.66;5103512;28;20389;-62
2022/01/27 00:18:14;;;;;;;25.45;15.73;;;;;;;6.55;62.83;102780.34;5102823;28;20158;-61
2022/01/27 00:20:44;;;;;;;28.77;16.55;;;;;;;6.53;62.91;102769.81;5103794;28;20047;-62
2022/01/27 00:23:12;;;;;;;26.63;15.15;;;;;;;6.55;62.94;102748.28;5103707;28;20059;-62
2022/01/27 00:25:40;;;;;;;24.70;14.65;;;;;;;6.53;63.08;102749.28;5102828;28;20055;-62
2022/01/27 00:28:08;;;;;;;26.75;16.17;;;;;;;6.55;63.15;102733.13;5101898;28;20044;-61
2022/01/27 00:30:38;;;;;;;27.27;16.67;;;;;;;6.53;63.02;102727.06;5102660;28;20070;-61
2022/01/27 00:33:07;;;;;;;28.35;15.35;;;;;;;6.52;63.17;102738.75;5102731;28;20040;-62
2022/01/27 00:35:35;;;;;;;26.02;15.55;;;;;;;6.54;63.09;102734.09;5100986;28;20044;-61
2022/01/27 00:38:05;;;;;;;26.67;15.85;;;;;;;6.50;62.86;102725.53;5103182;28;20044;-62
2022/01/27 00:40:33;;;;;;;26.83;15.23;;;;;;;6.52;63.15;102733.41;5103367;28;20047;-61
2022/01/27 00:43:00;;;;;;;23.67;14.35;;;;;;;6.55;63.15;102740.28;5094817;28;20045;-62
2022/01/27 00:45:30;;;;;;;26.80;14.55;;;;;;;6.51;62.94;102737.06;5101250;28;20067;-61
2022/01/27 00:48:01;;;;;;;24.25;14.90;;;;;;;6.52;63.11;102730.75;5096256;28;20044;-61
2022/01/27 00:50:31;;;;;;;24.67;14.85;;;;;;;6.49;62.69;102729.22;5103543;28;20067;-62
2022/01/27 00:53:02;;;;;;;26.15;15.32;;;;;;;6.43;63.32;102719.13;5103263;28;20048;-61
2022/01/27 00:55:36;;;;;;;23.70;15.05;;;;;;;6.50;63.30;102730.88;5102754;28;20055;-61
2022/01/27 00:58:15;;;;;;;24.77;14.15;;;;;;;6.51;63.16;102731.72;5098144;28;20048;-61
2022/01/27 01:00:52;;;;;;;25.23;15.15;;;;;;;6.52;62.85;102723.56;5090198;28;20040;-61
2022/01/27 01:03:27;;;;;;;24.65;14.75;;;;;;;6.51;62.91;102705.03;5094504;28;20325;-61
2022/01/27 01:06:17;;;;;;;23.42;13.02;;;;;;;6.50;63.16;102717.53;5103137;28;20052;-61
2022/01/27 01:17:00;;;;;;;26.95;14.30;;;;;;;6.52;62.92;102707.53;5102566;28;20044;-61
2022/01/27 01:19:40;;;;;;;23.00;13.52;;;;;;;6.51;63.39;102711.19;5101045;28;20047;-61
2022/01/27 01:30:34;;;;;;;24.92;13.80;;;;;;;6.53;63.35;102687.00;5100876;28;20086;-61
2022/01/27 01:33:05;;;;;;;22.67;13.98;;;;;;;6.52;62.99;102686.16;5093361;28;20157;-61
2022/01/27 01:35:47;;;;;;;24.30;14.68;;;;;;;6.55;62.95;102686.84;5102574;28;20048;-61
2022/01/27 01:38:17;;;;;;;21.60;14.32;;;;;;;6.53;63.31;102670.97;5100916;28;20088;-61
2022/01/27 01:40:46;;;;;;;23.85;15.43;;;;;;;6.53;63.31;102676.31;5102033;28;20077;-61
2022/01/27 01:43:17;;;;;;;24.85;15.48;;;;;;;6.52;63.20;102682.66;5100646;28;20063;-62
2022/01/27 01:45:45;;;;;;;22.60;14.35;;;;;;;6.52;63.58;102679.97;5101962;28;20055;-61
2022/01/27 01:48:15;;;;;;;24.15;14.85;;;;;;;6.52;63.17;102674.66;5101718;28;20047;-61
2022/01/27 01:50:44;;;;;;;21.73;13.80;;;;;;;6.52;62.99;102651.44;5102031;28;20063;-61
2022/01/27 01:53:11;;;;;;;25.73;15.60;;;;;;;6.51;62.93;102652.44;5101580;28;20052;-62
2022/01/27 01:55:39;;;;;;;26.88;15.25;;;;;;;6.53;63.19;102649.63;5101186;28;20052;-61
2022/01/27 01:58:07;;;;;;;25.92;15.77;;;;;;;6.52;63.32;102643.44;5100911;28;20105;-61
2022/01/27 02:00:37;;;;;;;23.00;13.40;;;;;;;6.47;63.40;102637.69;5099215;28;20036;-61
2022/01/27 02:03:05;;;;;;;22.88;13.75;;;;;;;6.49;63.55;102643.72;5101398;28;20101;-61
2022/01/27 02:05:39;;;;;;;24.55;14.68;;;;;;;6.50;63.44;102649.91;5102077;28;20048;-61
2022/01/27 02:08:31;;;;;;;24.25;14.27;;;;;;;6.51;63.55;102655.09;5100504;28;20557;-61
2022/01/27 02:19:22;;;;;;;22.60;12.98;;;;;;;6.49;63.61;102626.88;5093487;28;20059;-61
2022/01/27 02:21:53;;;;;;;25.88;13.80;;;;;;;6.48;63.28;102622.53;5096108;28;20130;-62
2022/01/27 02:24:22;;;;;;;24.25;13.98;;;;;;;6.48;63.24;102601.16;5097711;28;20081;-61
2022/01/27 02:26:51;;;;;;;29.95;13.65;;;;;;;6.49;63.49;102598.31;5101199;28;20071;-61
2022/01/27 02:29:20;;;;;;;22.33;13.80;;;;;;;6.49;63.45;102597.50;5100274;28;20071;-62
2022/01/27 02:31:49;;;;;;;27.90;14.40;;;;;;;6.48;63.29;102593.97;5100713;28;20072;-61
2022/01/27 02:34:17;;;;;;;20.80;13.65;;;;;;;6.48;63.22;102588.63;5097475;28;20135;-61
2022/01/27 02:36:45;;;;;;;24.88;13.68;;;;;;;6.46;63.16;102579.94;5101091;28;20126;-61
2022/01/27 02:39:14;;;;;;;20.65;13.02;;;;;;;6.48;63.60;102593.13;5100330;28;20068;-61
2022/01/27 02:41:46;;;;;;;25.52;13.13;;;;;;;6.48;63.78;102602.00;5100727;28;20101;-61
2022/01/27 02:44:21;;;;;;;25.00;14.02;;;;;;;6.49;63.51;102613.50;5095243;28;20171;-61
2022/01/27 02:46:51;;;;;;;25.13;13.63;;;;;;;6.43;63.72;102593.59;5101621;28;20070;-61
2022/01/27 02:49:18;;;;;;;25.35;14.02;;;;;;;6.48;63.60;102604.66;5100122;28;20047;-61
2022/01/27 02:51:46;;;;;;;21.05;13.10;;;;;;;6.48;63.90;102593.13;5100156;28;20044;-61
2022/01/27 02:54:15;;;;;;;27.33;13.82;;;;;;;6.46;63.85;102587.94;5099948;28;20051;-61
2022/01/27 02:56:46;;;;;;;25.05;13.32;;;;;;;6.48;63.57;102582.47;5101049;28;20059;-61
2022/01/27 02:59:16;;;;;;;23.27;13.80;;;;;;;6.43;63.58;102574.91;5100125;28;20048;-61
2022/01/27 03:01:45;;;;;;;24.08;12.93;;;;;;;6.48;63.75;102582.47;5100363;28;20047;-62
2022/01/27 03:04:13;;;;;;;19.88;12.50;;;;;;;6.48;63.47;102583.28;5100838;28;20067;-61
2022/01/27 03:06:42;;;;;;;22.73;12.82;;;;;;;6.48;63.68;102575.28;5101019;28;20051;-61
2022/01/27 03:09:10;;;;;;;24.38;13.20;;;;;;;6.47;64.02;102581.63;5099719;28;20068;-61
2022/01/27 03:11:44;;;;;;;21.50;13.05;;;;;;;6.48;64.15;102566.44;5094391;28;20170;-61
2022/01/27 03:14:13;;;;;;;22.60;12.60;;;;;;;6.48;63.81;102542.41;5100307;28;20527;-61
2022/01/27 03:16:43;;;;;;;22.60;13.02;;;;;;;6.47;63.81;102541.56;5100754;28;20048;-62
2022/01/27 03:19:11;;;;;;;23.58;13.30;;;;;;;6.49;63.72;102544.06;5093644;28;20056;-62
2022/01/27 03:21:39;;;;;;;19.48;12.65;;;;;;;6.49;63.80;102549.41;5100445;28;20081;-62
2022/01/27 03:24:08;;;;;;;20.60;11.43;;;;;;;6.50;64.08;102551.09;5099602;28;20123;-61
2022/01/27 03:26:35;;;;;;;24.67;13.43;;;;;;;6.48;64.00;102551.25;5100448;28;20059;-62
2022/01/27 03:29:05;;;;;;;23.10;13.27;;;;;;;6.50;64.16;102554.59;5099928;28;20052;-61
2022/01/27 03:31:33;;;;;;;21.45;12.07;;;;;;;6.50;63.87;102553.75;5100530;28;20052;-61
2022/01/27 03:34:01;;;;;;;24.05;13.15;;;;;;;6.49;64.38;102547.59;5100013;28;20161;-61
2022/01/27 03:36:28;;;;;;;25.90;12.93;;;;;;;6.50;63.87;102527.91;5100745;28;20266;-61
2022/01/27 03:38:56;;;;;;;21.30;13.18;;;;;;;6.50;64.14;102519.88;5099794;28;20070;-61
2022/01/27 03:41:29;;;;;;;32.15;13.38;;;;;;;6.48;64.02;102518.34;5100540;28;20044;-62
2022/01/27 03:43:57;;;;;;;26.92;13.15;;;;;;;6.47;64.20;102522.84;5099453;28;20044;-61
2022/01/27 03:46:26;;;;;;;21.05;12.57;;;;;;;6.45;64.24;102508.81;5100336;28;20044;-62
2022/01/27 03:48:55;;;;;;;20.65;13.20;;;;;;;6.48;64.19;102519.19;5100068;28;20111;-61
2022/01/27 03:51:23;;;;;;;23.63;14.82;;;;;;;6.48;64.26;102523.69;5100543;28;20245;-61
2022/01/27 03:53:51;;;;;;;21.42;12.98;;;;;;;6.48;64.31;102521.88;5099188;28;20084;-61
2022/01/27 03:56:19;;;;;;;25.55;12.65;;;;;;;6.48;64.28;102534.38;5090011;28;20521;-61
2022/01/27 03:58:47;;;;;;;21.75;13.05;;;;;;;6.48;64.39;102526.38;5099640;28;20101;-61
2022/01/27 04:01:14;;;;;;;24.33;13.43;;;;;;;6.47;64.46;102525.53;5093602;28;20469;-61
2022/01/27 04:03:44;;;;;;;26.40;14.73;;;;;;;6.48;64.27;102532.56;5100361;28;20052;-61
2022/01/27 04:06:19;;;;;;;23.10;12.52;;;;;;;6.47;64.66;102525.53;5100840;28;20047;-61
2022/01/27 04:08:48;;;;;;;21.90;13.32;;;;;;;6.47;64.54;102519.34;5099315;28;20048;-61
2022/01/27 04:11:15;;;;;;;23.52;13.35;;;;;;;6.47;64.68;102514.00;5100544;28;20055;-62
2022/01/27 04:13:43;;;;;;;21.65;13.40;;;;;;;6.47;64.78;102517.53;5099117;28;20081;-61
2022/01/27 04:16:11;;;;;;;21.48;12.48;;;;;;;6.46;64.60;102513.16;5100063;28;20044;-62
2022/01/27 04:18:38;;;;;;;23.48;12.88;;;;;;;6.46;64.76;102502.47;5099583;28;20040;-61
2022/01/27 04:21:07;;;;;;;22.05;12.07;;;;;;;6.46;64.68;102489.13;5103003;28;20048;-62
2022/01/27 04:23:35;;;;;;;24.55;12.25;;;;;;;6.49;64.86;102487.97;5102605;28;20044;-61
2022/01/27 04:26:04;;;;;;;21.58;12.35;;;;;;;6.49;64.68;102477.31;5103624;28;20109;-61
2022/01/27 04:28:35;;;;;;;20.35;12.15;;;;;;;6.48;64.51;102463.09;5102848;28;20120;-61
2022/01/27 04:31:08;;;;;;;23.42;13.02;;;;;;;6.48;64.74;102464.94;5102934;28;20120;-61
2022/01/27 04:33:37;;;;;;;23.50;11.80;;;;;;;6.47;64.67;102465.94;5103313;28;20230;-62
2022/01/27 04:36:12;;;;;;;19.80;11.63;;;;;;;6.48;64.80;102481.81;5103624;28;20036;-61
2022/01/27 04:38:47;;;;;;;26.08;12.43;;;;;;;6.47;64.66;102485.47;5095604;28;20047;-61
2022/01/27 04:41:19;;;;;;;22.33;12.35;;;;;;;6.47;65.00;102472.13;5103291;28;20044;-61
2022/01/27 04:43:53;;;;;;;20.15;11.52;;;;;;;6.47;65.30;102477.47;5102811;28;20048;-61
2022/01/27 04:46:29;;;;;;;17.92;11.43;;;;;;;6.47;64.84;102487.31;5103155;28;20064;-62
2022/01/27 04:49:01;;;;;;;29.20;12.57;;;;;;;6.45;65.24;102474.09;5102800;28;20050;-61
2022/01/27 04:51:29;;;;;;;27.77;13.02;;;;;;;6.41;64.99;102456.72;5095905;28;20143;-61
2022/01/27 04:54:03;;;;;;;22.60;12.20;;;;;;;6.45;64.86;102449.22;5102019;28;20060;-61
2022/01/27 04:56:34;;;;;;;19.80;11.68;;;;;;;6.45;65.07;102444.72;5102230;28;20047;-61
2022/01/27 04:59:07;;;;;;;22.52;11.98;;;;;;;6.43;65.14;102451.22;5101983;28;20050;-61
2022/01/27 05:01:40;;;;;;;20.77;11.80;;;;;;;6.45;65.01;102459.91;5102749;28;20071;-62
2022/01/27 05:04:11;;;;;;;17.75;11.80;;;;;;;6.44;65.01;102452.91;5102986;28;20135;-62
2022/01/27 05:06:39;;;;;;;22.67;12.10;;;;;;;6.43;65.13;102446.72;5102743;28;20044;-61
2022/01/27 05:09:08;;;;;;;20.90;11.05;;;;;;;6.43;65.11;102443.19;5101556;28;20040;-61
2022/01/27 05:11:39;;;;;;;27.02;11.95;;;;;;;6.43;65.10;102438.69;5099452;28;20070;-62
2022/01/27 05:14:12;;;;;;;23.20;11.85;;;;;;;6.45;65.30;102441.22;5092237;28;20071;-61
2022/01/27 05:16:41;;;;;;;22.38;12.52;;;;;;;6.44;64.84;102426.19;5102461;28;20264;-61
2022/01/27 05:19:09;;;;;;;24.17;11.90;;;;;;;6.45;65.19;102431.38;5102370;28;20111;-61
2022/01/27 05:21:37;;;;;;;22.33;12.65;;;;;;;6.45;65.10;102419.84;5101389;28;20051;-62
2022/01/27 05:24:06;;;;;;;22.23;12.70;;;;;;;6.45;65.08;102423.34;5092994;28;20112;-61
2022/01/27 05:26:35;;;;;;;22.35;12.43;;;;;;;6.45;65.57;102435.88;5101885;28;20047;-62
2022/01/27 05:29:06;;;;;;;24.02;11.65;;;;;;;6.45;65.28;102425.19;5101445;28;20075;-61
2022/01/27 05:31:33;;;;;;;21.05;11.02;;;;;;;6.45;65.15;102422.53;5101390;28;20550;-61
2022/01/27 05:34:01;;;;;;;25.38;13.38;;;;;;;6.45;65.28;102423.34;5101432;28;20496;-62
2022/01/27 05:36:29;;;;;;;22.05;12.57;;;;;;;6.47;65.15;102418.69;5101805;28;20040;-61
2022/01/27 05:38:57;;;;;;;23.83;12.43;;;;;;;6.46;65.32;102406.34;5093919;28;20109;-61
2022/01/27 05:41:25;;;;;;;22.98;12.00;;;;;;;6.46;65.48;102417.03;5098213;28;20044;-61
2022/01/27 05:43:54;;;;;;;21.63;11.75;;;;;;;6.45;65.24;102419.84;5100070;28;20180;-61
2022/01/27 05:46:22;;;;;;;20.20;10.93;;;;;;;6.45;65.50;102403.81;5101622;28;20058;-62
2022/01/27 05:48:50;;;;;;;20.20;11.30;;;;;;;6.44;65.40;102402.16;5099472;28;20051;-63
2022/01/27 05:51:17;;;;;;;20.85;11.93;;;;;;;6.43;65.55;102390.63;5102276;28;20048;-62
2022/01/27 05:53:45;;;;;;;21.85;12.57;;;;;;;6.45;65.82;102382.47;5101203;28;20048;-62
2022/01/27 05:56:13;;;;;;;21.25;11.93;;;;;;;6.45;65.79;102393.97;5101661;28;20510;-62
2022/01/27 05:58:40;;;;;;;24.27;12.35;;;;;;;6.47;65.30;102394.66;5102321;28;20213;-62
2022/01/27 06:01:10;;;;;;;21.52;11.18;;;;;;;6.44;65.80;102389.63;5100736;28;20070;-61
2022/01/27 06:03:37;;;;;;;23.20;12.20;;;;;;;6.46;65.42;102382.31;5096403;28;20258;-62
2022/01/27 06:06:05;;;;;;;22.80;12.40;;;;;;;6.45;65.99;102379.78;5101042;28;20047;-61
2022/01/27 06:08:33;;;;;;;22.98;12.95;;;;;;;6.45;66.03;102393.97;5100876;28;20440;-62
2022/01/27 06:11:01;;;;;;;25.50;13.15;;;;;;;6.45;65.80;102388.66;5102243;28;20044;-61
2022/01/27 06:13:29;;;;;;;22.00;12.30;;;;;;;6.49;65.75;102392.69;5100311;28;20093;-62
2022/01/27 06:15:57;;;;;;;24.08;12.50;;;;;;;6.62;65.48;102380.72;5101815;28;20119;-61
2022/01/27 06:18:26;;;;;;;21.10;11.27;;;;;;;6.75;65.29;102381.13;5092229;28;20111;-61
2022/01/27 06:20:59;;;;;;;21.80;12.52;;;;;;;6.90;64.25;102386.72;5101173;28;20055;-62
2022/01/27 06:23:27;;;;;;;21.05;12.43;;;;;;;7.00;64.49;102371.38;5092610;28;20074;-60
2022/01/27 06:25:55;;;;;;;27.58;12.80;;;;;;;7.12;63.82;102370.06;5100579;28;20066;-61
2022/01/27 06:28:22;;;;;;;24.58;13.52;;;;;;;7.25;64.06;102378.47;5100980;28;20067;-63
2022/01/27 06:30:50;;;;;;;27.80;14.57;;;;;;;7.41;63.10;102378.53;5101080;28;20051;-61
2022/01/27 06:33:18;;;;;;;25.48;13.48;;;;;;;7.54;63.15;102375.38;5101569;28;20050;-61
2022/01/27 06:35:47;;;;;;;22.65;12.43;;;;;;;7.68;62.30;102380.09;5101382;28;20072;-61
2022/01/27 06:38:17;;;;;;;23.98;13.52;;;;;;;7.79;62.19;102368.22;5100310;28;20063;-61
2022/01/27 06:40:45;;;;;;;25.42;12.63;;;;;;;7.90;61.91;102365.22;5100675;28;20083;-61
2022/01/27 06:43:13;;;;;;;21.88;12.43;;;;;;;7.99;61.19;102364.22;4389658;28;10000716;-61
2022/01/27 06:45:41;;;;;;;21.33;12.07;;;;;;;7.98;61.39;102365.22;5097475;28;20044;-61
2022/01/27 06:48:09;;;;;;;22.38;12.55;;;;;;;7.82;62.16;102363.38;5096750;28;20081;-63
2022/01/27 06:50:38;;;;;;;29.45;13.77;;;;;;;7.64;63.70;102373.38;5097943;28;20048;-62
2022/01/27 06:53:08;;;;;;;26.63;13.43;;;;;;;7.52;63.23;102355.97;5096821;28;20044;-61
2022/01/27 06:55:37;;;;;;;27.10;14.00;;;;;;;7.40;63.81;102350.09;5097338;28;20055;-61
2022/01/27 06:58:05;;;;;;;21.00;12.57;;;;;;;7.31;64.35;102355.59;5096588;28;20048;-62
2022/01/27 07:00:33;;;;;;;27.83;14.48;;;;;;;7.25;64.15;102348.22;5094006;28;20098;-62
2022/01/27 07:03:00;;;;;;;26.02;13.80;;;;;;;7.19;64.60;102336.34;5092063;28;20066;-60
2022/01/27 07:05:31;;;;;;;23.92;13.55;;;;;;;7.17;64.77;102346.38;5093481;28;20048;-62
2022/01/27 07:07:59;;;;;;;25.10;12.52;;;;;;;7.11;65.34;102344.34;5094499;28;20048;-62
2022/01/27 07:10:28;;;;;;;23.85;13.68;;;;;;;7.09;65.01;102346.34;5097395;28;21381;-62
2022/01/27 07:12:56;;;;;;;25.65;14.15;;;;;;;7.08;65.62;102348.19;5098102;28;20040;-59
2022/01/27 07:15:24;;;;;;;27.38;14.38;;;;;;;7.02;65.84;102345.31;5099975;28;20063;-63
2022/01/27 07:17:52;;;;;;;28.92;14.68;;;;;;;6.98;66.30;102349.31;5100985;28;20040;-62
2022/01/27 07:20:20;;;;;;;27.95;13.00;;;;;;;6.96;66.09;102351.31;5101420;28;20453;-62
2022/01/27 07:22:48;;;;;;;30.90;14.38;;;;;;;6.92;66.22;102353.50;5099553;28;20109;-62
2022/01/27 07:25:16;;;;;;;28.25;14.63;;;;;;;6.89;66.09;102344.97;5101497;28;20048;-62
2022/01/27 07:27:45;;;;;;;23.83;13.65;;;;;;;6.88;66.57;102351.31;5098388;28;20086;-61
2022/01/27 07:30:13;;;;;;;27.50;14.32;;;;;;;6.87;66.49;102357.66;5100024;28;20322;-62
2022/01/27 07:32:41;;;;;;;26.67;13.85;;;;;;;6.87;66.29;102358.47;5100380;28;20051;-62
2022/01/27 07:35:09;;;;;;;27.38;13.18;;;;;;;6.83;66.61;102357.97;5100996;28;20069;-62
2022/01/27 07:37:40;;;;;;;26.08;14.07;;;;;;;6.83;67.08;102357.97;5098732;28;20100;-62
2022/01/27 07:40:10;;;;;;;27.70;14.57;;;;;;;6.82;66.98;102363.47;5088416;28;20048;-62
2022/01/27 07:42:38;;;;;;;28.05;14.65;;;;;;;6.79;66.80;102351.28;5096649;28;20051;-61
2022/01/27 07:45:08;;;;;;;30.02;15.25;;;;;;;6.79;66.78;102353.94;5100212;28;20043;-62
2022/01/27 07:47:36;;;;;;;27.00;15.23;;;;;;;6.76;67.53;102354.25;5097059;28;20052;-62
2022/01/27 07:50:05;;;;;;;26.75;14.30;;;;;;;6.78;67.42;102351.44;5099276;28;20051;-63
2022/01/27 07:52:33;;;;;;;26.20;15.27;;;;;;;6.77;67.10;102347.09;5099513;28;20117;-63
2022/01/27 07:55:00;;;;;;;26.08;14.00;;;;;;;6.77;66.94;102349.75;5102857;28;20465;-63
2022/01/27 07:57:28;;;;;;;30.52;13.80;;;;;;;6.77;67.05;102347.09;5102734;28;20043;-63
2022/01/27 07:59:56;;;;;;;26.77;14.02;;;;;;;6.77;67.41;102357.78;5100782;28;20055;-63
2022/01/27 08:02:25;;;;;;;29.60;15.50;;;;;;;6.79;67.22;102358.44;5103853;28;20067;-63
2022/01/27 08:04:53;;;;;;;25.80;14.05;;;;;;;6.76;67.75;102362.28;5096693;28;20134;-63
2022/01/27 08:07:21;;;;;;;28.55;14.88;;;;;;;6.76;68.03;102359.59;5103456;28;20063;-63
2022/01/27 08:09:51;;;;;;;31.13;15.50;;;;;;;6.77;68.03;102377.31;5100476;28;20389;-63
2022/01/27 08:12:19;;;;;;;27.92;15.25;;;;;;;6.78;68.60;102380.81;5103416;28;20048;-62
2022/01/27 08:14:46;;;;;;;33.95;15.68;;;;;;;6.76;68.36;102378.31;5102736;28;20083;-63
2022/01/27 08:17:17;;;;;;;25.33;15.50;;;;;;;6.78;68.51;102372.81;5104134;28;20059;-64
2022/01/27 08:19:46;;;;;;;28.27;14.13;;;;;;;6.76;68.58;102374.78;5103869;28;20108;-63
2022/01/27 08:22:13;;;;;;;30.50;15.88;;;;;;;6.75;69.57;102381.97;5102921;28;20071;-63
2022/01/27 08:24:41;;;;;;;30.63;15.75;;;;;;;6.76;69.25;102366.78;5104125;28;20059;-62
2022/01/27 08:27:12;;;;;;;28.60;15.68;;;;;;;6.75;69.64;102365.94;5102815;28;20044;-62
2022/01/27 08:30:00;;;;;;;30.83;16.23;;;;;;;6.77;69.48;102361.28;5095333;28;20093;-62
2022/01/27 08:32:40;;;;;;;33.80;15.23;;;;;;;6.74;69.25;102360.75;5103114;28;20063;-62
2022/01/27 08:35:10;;;;;;;31.75;16.05;;;;;;;6.77;69.71;102363.94;5104616;28;20463;-62
2022/01/27 08:37:38;;;;;;;24.25;14.05;;;;;;;6.76;69.52;102361.44;5102404;28;20448;-62
2022/01/27 08:40:08;;;;;;;29.52;15.02;;;;;;;6.76;70.08;102356.09;5103444;28;20047;-62
2022/01/27 08:42:57;;;;;;;32.05;15.10;;;;;;;6.74;69.86;102356.25;5103590;28;20062;-63
2022/01/27 08:45:25;;;;;;;31.77;15.35;;;;;;;6.72;70.07;102352.91;5103211;28;20093;-63
2022/01/27 08:47:57;;;;;;;29.63;15.48;;;;;;;6.76;70.01;102356.09;5103251;28;20140;-63
2022/01/27 08:50:28;;;;;;;26.52;15.23;;;;;;;6.68;70.08;102346.19;5102560;28;20076;-63
2022/01/27 08:52:56;;;;;;;28.48;15.10;;;;;;;6.75;69.70;102355.25;5103083;28;20083;-62
2022/01/27 08:55:24;;;;;;;27.75;14.90;;;;;;;6.75;69.10;102367.78;5094668;28;20361;-63
2022/01/27 08:57:51;;;;;;;33.80;15.52;;;;;;;6.69;70.37;102355.06;5102909;28;20048;-62
2022/01/27 09:00:20;;;;;;;27.13;15.30;;;;;;;6.77;69.97;102361.28;5101691;28;20060;-62
2022/01/27 09:03:08;;;;;;;27.08;14.90;;;;;;;6.78;70.27;102364.78;5091938;28;20108;-62
2022/01/27 09:05:37;;;;;;;27.67;14.55;;;;;;;6.69;70.28;102347.03;5102380;28;20040;-62
2022/01/27 09:08:05;;;;;;;25.48;14.85;;;;;;;6.79;70.34;102358.44;5097697;28;20101;-61
2022/01/27 09:10:33;;;;;;;31.48;15.35;;;;;;;6.81;70.23;102359.13;5102896;28;20040;-62
2022/01/27 09:13:01;;;;;;;26.70;15.10;;;;;;;6.81;70.11;102362.63;5105233;28;20079;-62
2022/01/27 09:15:29;;;;;;;28.83;16.08;;;;;;;6.80;70.42;102354.78;5102439;28;20044;-62
2022/01/27 09:17:59;;;;;;;29.05;15.98;;;;;;;6.81;70.52;102357.28;5103198;28;20154;-62
2022/01/27 09:20:27;;;;;;;26.15;14.45;;;;;;;6.81;70.47;102351.09;5102884;28;20532;-62
2022/01/27 09:22:58;;;;;;;26.23;14.15;;;;;;;6.80;70.99;102355.63;5101602;28;20070;-62
2022/01/27 09:25:31;;;;;;;24.27;14.98;;;;;;;6.81;70.79;102356.44;5102828;28;20048;-62
2022/01/27 09:27:59;;;;;;;25.48;14.40;;;;;;;6.82;70.74;102350.94;5102708;28;20044;-62
2022/01/27 09:30:27;;;;;;;26.17;15.65;;;;;;;6.80;70.82;102352.94;5101047;28;20055;-62
2022/01/27 09:32:57;;;;;;;30.90;15.73;;;;;;;6.82;70.78;102350.94;5101655;28;20514;-62
2022/01/27 09:35:24;;;;;;;30.20;16.23;;;;;;;6.81;71.10;102351.94;5102295;28;20044;-62
2022/01/27 09:37:52;;;;;;;25.17;14.30;;;;;;;6.82;71.43;102355.47;5101143;28;20465;-62
2022/01/27 09:40:21;;;;;;;26.58;14.68;;;;;;;6.83;71.82;102354.47;5098289;28;20053;-62
2022/01/27 09:42:51;;;;;;;32.28;15.50;;;;;;;6.82;71.49;102356.28;5099647;28;20082;-62
2022/01/27 09:45:20;;;;;;;28.88;14.65;;;;;;;6.83;71.35;102368.66;5101901;28;20077;-62
2022/01/27 09:47:54;;;;;;;27.85;14.70;;;;;;;6.83;71.58;102359.81;5102191;28;20066;-62
2022/01/27 09:50:27;;;;;;;26.50;13.48;;;;;;;6.83;71.74;102354.47;5095287;28;20059;-62
2022/01/27 09:52:55;;;;;;;28.17;15.27;;;;;;;6.84;71.44;102356.13;5090654;28;20070;-62
2022/01/27 09:55:25;;;;;;;23.92;13.73;;;;;;;6.83;71.63;102352.63;5102101;28;20036;-62
2022/01/27 09:58:01;;;;;;;24.13;14.23;;;;;;;6.84;71.74;102361.47;5101650;28;20123;-61
2022/01/27 10:00:29;;;;;;;27.38;13.70;;;;;;;6.84;71.48;102367.66;5101681;28;20420;-62
2022/01/27 10:03:09;;;;;;;21.48;12.38;;;;;;;6.84;70.93;102370.34;5102232;28;20044;-62
2022/01/27 10:05:38;;;;;;;24.23;13.35;;;;;;;6.88;71.89;102372.69;5095871;28;20048;-61
2022/01/27 10:08:10;;;;;;;23.45;12.68;;;;;;;6.90;72.18;102371.53;5097311;28;20135;-61
2022/01/27 10:10:42;;;;;;;23.42;13.38;;;;;;;6.89;72.10;102369.00;5101426;28;20040;-62
2022/01/27 10:13:11;;;;;;;22.90;12.32;;;;;;;6.91;72.14;102357.16;5101433;28;20048;-62
2022/01/27 10:15:46;;;;;;;24.30;12.23;;;;;;;6.89;71.69;102359.16;5101205;28;20053;-62
2022/01/27 10:18:16;;;;;;;21.25;11.82;;;;;;;6.89;72.34;102369.84;5100859;28;20048;-62
2022/01/27 10:20:49;;;;;;;21.00;12.02;;;;;;;6.89;71.54;102363.66;5101644;28;20044;-62
2022/01/27 10:23:20;;;;;;;18.77;11.57;;;;;;;6.90;72.28;102357.31;5100951;28;20086;-62
2022/01/27 10:25:53;;;;;;;20.15;12.27;;;;;;;6.92;72.31;102371.38;5101666;28;20044;-62
2022/01/27 10:28:31;;;;;;;19.77;11.55;;;;;;;6.93;71.77;102373.03;5100045;28;20052;-62
2022/01/27 10:31:00;;;;;;;20.85;11.57;;;;;;;6.94;72.15;102367.50;5097444;28;20086;-61
2022/01/27 10:33:40;;;;;;;18.70;11.48;;;;;;;6.93;72.26;102359.69;5100685;28;20121;-61
2022/01/27 10:36:18;;;;;;;18.50;11.32;;;;;;;6.93;71.92;102360.50;5100202;28;20464;-61
2022/01/27 10:38:47;;;;;;;21.17;11.35;;;;;;;6.94;72.48;102355.97;5100132;28;20155;-61
2022/01/27 10:41:18;;;;;;;20.98;11.25;;;;;;;6.95;73.23;102363.00;5100014;28;20051;-61
2022/01/27 10:43:46;;;;;;;18.80;11.30;;;;;;;6.95;71.96;102357.66;5101591;28;20052;-61
2022/01/27 10:46:21;;;;;;;17.15;11.07;;;;;;;6.95;72.36;102352.31;5101014;28;20067;-62
2022/01/27 10:48:54;;;;;;;16.80;9.88;;;;;;;6.95;73.39;102355.81;5101784;28;20052;-61
2022/01/27 10:51:25;;;;;;;16.27;10.00;;;;;;;6.97;73.43;102356.50;5101410;28;20047;-62
2022/01/27 10:54:00;;;;;;;19.38;10.82;;;;;;;6.94;72.98;102359.47;5100333;28;20052;-62
2022/01/27 10:56:31;;;;;;;16.08;9.57;;;;;;;6.94;73.00;102356.81;5100358;28;20047;-61
2022/01/27 10:59:02;;;;;;;17.38;9.77;;;;;;;6.96;73.40;102370.84;5100771;28;20134;-62
2022/01/27 11:01:33;;;;;;;14.07;9.02;;;;;;;6.98;73.95;102365.34;5100397;28;20449;-62
2022/01/27 11:04:02;;;;;;;16.10;9.88;;;;;;;6.98;73.77;102355.50;5100600;28;20079;-62
2022/01/27 11:06:32;;;;;;;17.08;9.40;;;;;;;6.99;73.64;102362.50;5094195;28;20044;-61
2022/01/27 11:09:05;;;;;;;16.95;9.45;;;;;;;6.96;72.52;102357.50;5096857;28;20498;-60
2022/01/27 11:11:36;;;;;;;14.85;9.55;;;;;;;7.01;73.26;102352.50;5101237;28;20048;-61
2022/01/27 11:14:04;;;;;;;15.48;9.82;;;;;;;7.02;73.55;102348.81;5100866;28;20056;-61
2022/01/27 11:16:36;;;;;;;13.80;9.05;;;;;;;7.02;73.30;102345.31;5100315;28;20071;-61
2022/01/27 11:19:21;;;;;;;14.00;8.75;;;;;;;7.04;73.45;102343.31;5100330;28;20044;-61
2022/01/27 11:21:56;;;;;;;13.63;8.77;;;;;;;7.03;73.52;102341.66;5093286;28;20086;-61
2022/01/27 11:24:31;;;;;;;16.92;8.75;;;;;;;7.03;74.02;102336.28;5100069;28;20106;-61
2022/01/27 11:27:05;;;;;;;16.65;8.95;;;;;;;7.04;74.13;102336.13;5089802;28;20109;-62
2022/01/27 11:29:43;;;;;;;16.70;8.60;;;;;;;7.03;74.31;102334.47;5095347;28;20047;-61
2022/01/27 11:32:17;;;;;;;14.60;9.50;;;;;;;7.04;74.11;102332.63;5104808;28;20047;-61
2022/01/27 11:34:47;;;;;;;16.00;9.40;;;;;;;7.03;74.63;102323.78;5104327;28;20039;-61
2022/01/27 11:37:18;;;;;;;18.58;9.27;;;;;;;7.05;74.30;102323.59;5102877;28;20503;-60
2022/01/27 11:40:06;;;;;;;18.52;9.68;;;;;;;7.14;74.80;102312.78;5101460;28;20048;-62
2022/01/27 11:43:10;;;;;;;17.00;9.48;;;;;;;7.16;75.36;102317.97;5095557;28;20614;-61
2022/01/27 11:45:40;;;;;;;18.40;9.93;;;;;;;7.26;74.82;102313.31;5096797;28;20044;-62
2022/01/27 11:48:11;;;;;;;14.07;9.38;;;;;;;7.42;73.79;102301.78;5097224;28;20261;-62
2022/01/27 11:50:52;;;;;;;20.08;10.55;;;;;;;7.56;73.79;102303.81;5096559;28;20079;-62
2022/01/27 11:53:35;;;;;;;13.43;9.27;;;;;;;7.78;72.55;102303.16;5097673;28;20040;-60
2022/01/27 11:56:05;;;;;;;14.63;9.13;;;;;;;7.91;71.92;102309.84;5091477;28;20216;-61
2022/01/27 11:58:46;;;;;;;15.35;9.73;;;;;;;8.09;71.90;102302.44;5096438;28;20070;-62